Leander, Texas
Current Conditions -  °F | °C
As of 10:55 PM on Saturday 25 Oct 2014 (Local Time) from KRYW Reporting Station
Clear Clear  
Wind Chill: 73°   Ceiling: Unl
Heat Index: 73°   Visibility: 10mi
Dew Point: 57°   Wind: 5mph
Humidity: 57%   Direction: 150°SSE
Pressure: 30.12"   Gusts: NA
Location:  30.56°N, 97.86°W
Report Text: KRYW 260355Z AUTO 15004KT 10SM CLR 23/14 A3012 RMK AO2 T02300140
Loading
Personal Weather Stations






























Interactive Weather Map
Tropical Storm Tracking
New forecast layout! Learn more

10-Day Weather Forecast

Advertisements
Track Severe Weather on mobile